Terminal Aerodrome Forecast
Issued by NWS

Home | Current Version | Previous Version | Text Only | Print | Product List | Glossary On
Versions: 1 2 3 4 5 6 7 8 9 10 11 12 13 14 15 16 17
589
FTUS43 KMQT 261136
TAFIWD
TAF
KIWD 261136Z 2612/2712 10003KT 3SM BR VCSH OVC003
     FM261500 08003KT 5SM BR OVC003
     FM262000 03004KT 5SM BR OVC003
     FM270000 00000KT 3/4SM BR OVC003=

USA.gov is the U.S. government's official web portal to all federal, state and local government web resources and services.